createdAt,value
2017-12-20T00:02:15.792Z,38.27
2017-12-20T00:04:43.408Z,33.43
2017-12-20T00:07:11.032Z,45.17
2017-12-20T00:09:38.634Z,26.37
2017-12-20T00:12:06.239Z,35.53
2017-12-20T00:14:33.873Z,23.23
2017-12-20T00:17:01.481Z,27.20
2017-12-20T00:19:29.113Z,24.53
2017-12-20T00:21:56.708Z,40.30
2017-12-20T00:24:24.373Z,30.07
2017-12-20T00:26:51.978Z,41.80
2017-12-20T00:29:19.578Z,30.57
2017-12-20T00:31:47.202Z,40.50
2017-12-20T00:34:14.872Z,36.90
2017-12-20T00:36:42.513Z,37.67
2017-12-20T00:39:10.124Z,29.50
2017-12-20T00:41:38.548Z,37.30
2017-12-20T00:44:06.179Z,36.43
2017-12-20T00:46:34.552Z,39.63
2017-12-20T00:49:02.194Z,31.93
2017-12-20T00:51:29.786Z,29.17
2017-12-20T00:53:58.156Z,31.07
2017-12-20T00:56:25.795Z,29.63
2017-12-20T00:58:53.401Z,26.93
2017-12-20T01:01:21.817Z,36.03
2017-12-20T01:03:49.440Z,32.73
2017-12-20T01:06:17.822Z,35.67
2017-12-20T01:08:45.453Z,35.50
2017-12-20T01:11:14.559Z,34.90
2017-12-20T01:13:42.961Z,26.87
2017-12-20T01:16:10.561Z,35.60
2017-12-20T01:18:38.190Z,33.80
2017-12-20T01:21:05.818Z,27.03
2017-12-20T01:23:34.194Z,26.60
2017-12-20T01:26:01.855Z,29.97
2017-12-20T01:28:29.476Z,31.97
2017-12-20T01:30:57.105Z,28.17
2017-12-20T01:33:24.707Z,18.50
2017-12-20T01:35:52.337Z,26.03
2017-12-20T01:38:19.978Z,29.73
2017-12-20T01:40:48.368Z,25.97
2017-12-20T01:43:16.032Z,21.90
2017-12-20T01:45:43.645Z,30.60
2017-12-20T01:48:12.929Z,21.40
2017-12-20T01:50:40.544Z,25.93
2017-12-20T01:53:08.932Z,21.60
2017-12-20T01:55:37.335Z,26.40
2017-12-20T01:58:04.999Z,26.83
2017-12-20T02:00:32.605Z,16.43
2017-12-20T02:03:00.213Z,20.40
2017-12-20T02:05:27.848Z,28.90
2017-12-20T02:07:56.213Z,27.30
2017-12-20T02:10:24.608Z,21.97
2017-12-20T02:12:52.974Z,15.27
2017-12-20T02:15:21.368Z,28.40
2017-12-20T02:17:49.005Z,17.07
2017-12-20T02:20:17.421Z,22.10
2017-12-20T02:22:45.017Z,24.77
2017-12-20T02:25:12.777Z,19.33
2017-12-20T02:27:40.412Z,22.57
2017-12-20T02:30:08.054Z,22.40
2017-12-20T02:32:35.761Z,19.80
2017-12-20T02:35:03.392Z,24.87
2017-12-20T02:37:31.096Z,27.70
2017-12-20T02:39:58.722Z,30.60
2017-12-20T02:42:26.354Z,21.50
2017-12-20T02:44:54.775Z,26.00
2017-12-20T02:47:22.397Z,28.00
2017-12-20T02:49:50.817Z,24.70
2017-12-20T02:52:18.468Z,23.43
2017-12-20T02:54:46.290Z,18.67
2017-12-20T02:57:14.685Z,19.87
2017-12-20T02:59:43.092Z,25.73
2017-12-20T03:02:10.721Z,20.90
2017-12-20T03:04:39.155Z,21.87
2017-12-20T03:07:06.890Z,13.67
2017-12-20T03:09:34.538Z,21.70
2017-12-20T03:12:02.161Z,20.40
2017-12-20T03:14:29.820Z,26.30
2017-12-20T03:16:57.421Z,24.73
2017-12-20T03:19:25.036Z,12.57
2017-12-20T03:21:52.715Z,24.80
2017-12-20T03:24:20.353Z,22.23
2017-12-20T03:26:47.982Z,19.60
2017-12-20T03:29:15.589Z,18.03
2017-12-20T03:31:43.233Z,19.90
2017-12-20T03:34:10.844Z,19.13
2017-12-20T03:36:40.281Z,18.33
2017-12-20T03:39:07.881Z,15.23
2017-12-20T03:41:35.490Z,18.60
2017-12-20T03:44:03.142Z,13.83
2017-12-20T03:46:30.829Z,19.00
2017-12-20T03:48:58.461Z,18.40
2017-12-20T03:51:26.096Z,25.87
2017-12-20T03:53:53.754Z,23.07
2017-12-20T03:56:21.380Z,20.43
2017-12-20T03:58:48.977Z,18.87
2017-12-20T04:01:16.622Z,23.60
2017-12-20T04:03:45.767Z,21.87
2017-12-20T04:06:13.397Z,17.50
2017-12-20T04:08:41.789Z,17.90
2017-12-20T04:11:10.194Z,17.70
2017-12-20T04:13:37.816Z,22.63
2017-12-20T04:16:05.421Z,21.97
2017-12-20T04:18:33.064Z,16.20
2017-12-20T04:21:00.687Z,25.20
2017-12-20T04:23:28.327Z,25.03
2017-12-20T04:25:55.924Z,23.00
2017-12-20T04:28:24.333Z,17.80
2017-12-20T04:30:51.944Z,20.23
2017-12-20T04:33:19.610Z,18.57
2017-12-20T04:35:47.738Z,15.33
2017-12-20T04:38:16.127Z,17.83
2017-12-20T04:40:43.757Z,19.50
2017-12-20T04:43:12.128Z,16.27
2017-12-20T04:45:40.526Z,15.43
2017-12-20T04:48:08.121Z,21.20
2017-12-20T04:50:35.746Z,18.80
2017-12-20T04:53:03.358Z,15.93
2017-12-20T04:55:31.009Z,23.40
2017-12-20T04:57:58.605Z,22.27
2017-12-20T05:00:26.969Z,23.47
2017-12-20T05:02:55.384Z,16.70
2017-12-20T05:05:22.997Z,11.73
2017-12-20T05:07:50.652Z,18.47
2017-12-20T05:10:18.266Z,11.40
2017-12-20T05:12:45.879Z,15.37
2017-12-20T05:15:13.519Z,11.73
2017-12-20T05:17:41.118Z,19.73
2017-12-20T05:20:09.493Z,11.47
2017-12-20T05:22:37.901Z,17.80
2017-12-20T05:25:05.502Z,17.70
2017-12-20T05:27:33.116Z,16.20
2017-12-20T05:30:01.094Z,20.50
2017-12-20T05:32:28.797Z,10.37
2017-12-20T05:34:56.397Z,20.17
2017-12-20T05:37:25.108Z,21.63
2017-12-20T05:39:52.709Z,19.60
2017-12-20T05:42:20.305Z,11.13
2017-12-20T05:44:48.723Z,20.17
2017-12-20T05:47:16.405Z,16.93
2017-12-20T05:49:44.067Z,11.07
2017-12-20T05:52:11.709Z,19.50
2017-12-20T05:54:39.308Z,19.23
2017-12-20T05:57:06.906Z,21.80
2017-12-20T05:59:34.554Z,16.23
2017-12-20T06:02:02.929Z,18.50
2017-12-20T06:04:31.304Z,11.03
2017-12-20T06:06:58.952Z,12.33
2017-12-20T06:09:26.573Z,17.93
2017-12-20T06:11:54.178Z,21.30
2017-12-20T06:14:21.805Z,13.43
2017-12-20T06:16:49.405Z,10.80
2017-12-20T06:19:17.051Z,14.63
2017-12-20T06:21:44.650Z,16.70
2017-12-20T06:24:13.008Z,17.00
2017-12-20T06:26:40.660Z,14.77
2017-12-20T06:29:09.786Z,15.90
2017-12-20T06:31:37.413Z,12.70
2017-12-20T06:34:05.041Z,17.87
2017-12-20T06:36:32.654Z,17.73
2017-12-20T06:39:01.021Z,19.20
2017-12-20T06:41:28.660Z,20.20
2017-12-20T06:43:56.315Z,17.63
2017-12-20T06:46:24.591Z,14.83
2017-12-20T06:48:53.002Z,14.90
2017-12-20T06:51:20.604Z,15.40
2017-12-20T06:53:48.330Z,13.90
2017-12-20T06:56:16.696Z,17.47
2017-12-20T06:58:44.308Z,12.03
2017-12-20T07:01:11.962Z,14.03
2017-12-20T07:03:39.568Z,18.50
2017-12-20T07:06:07.165Z,15.83
2017-12-20T07:08:35.554Z,19.03
2017-12-20T07:11:03.159Z,14.80
2017-12-20T07:13:30.789Z,10.20
2017-12-20T07:15:58.478Z,8.90
2017-12-20T07:18:26.134Z,13.30
2017-12-20T07:20:53.777Z,14.20
2017-12-20T07:23:21.394Z,8.27
2017-12-20T07:25:49.027Z,10.90
2017-12-20T07:28:16.636Z,12.20
2017-12-20T07:30:45.059Z,16.57
2017-12-20T07:33:12.685Z,8.57
2017-12-20T07:35:41.824Z,12.80
2017-12-20T07:38:09.421Z,9.70
2017-12-20T07:40:37.859Z,8.73
2017-12-20T07:43:05.477Z,11.60
2017-12-20T07:45:33.085Z,11.33
2017-12-20T07:48:00.708Z,7.50
2017-12-20T07:50:28.314Z,10.13
2017-12-20T07:52:55.949Z,9.63
2017-12-20T07:55:23.625Z,8.13
2017-12-20T07:57:51.221Z,11.60
2017-12-20T08:00:21.050Z,10.80
2017-12-20T08:02:48.858Z,9.70
2017-12-20T08:05:16.457Z,10.57
2017-12-20T08:07:44.055Z,10.30
2017-12-20T08:10:11.745Z,11.47
2017-12-20T08:12:39.367Z,9.47
2017-12-20T08:15:07.030Z,12.40
2017-12-20T08:17:35.448Z,15.00
2017-12-20T08:20:03.044Z,10.60
2017-12-20T08:22:30.684Z,10.13
2017-12-20T08:24:58.277Z,9.10
2017-12-20T08:27:26.674Z,11.50
2017-12-20T08:29:55.061Z,9.87
2017-12-20T08:32:22.694Z,10.43
2017-12-20T08:34:50.382Z,11.07
2017-12-20T08:37:17.981Z,10.13
2017-12-20T08:39:45.570Z,10.93
2017-12-20T08:42:13.981Z,8.47
2017-12-20T08:44:41.601Z,12.70
2017-12-20T08:47:10.058Z,11.80
2017-12-20T08:49:37.690Z,12.27
2017-12-20T08:52:05.309Z,12.53
2017-12-20T08:54:32.949Z,11.70
2017-12-20T08:57:00.538Z,9.77
2017-12-20T08:59:29.822Z,8.17
2017-12-20T09:01:58.265Z,12.10
2017-12-20T09:04:25.885Z,7.80
2017-12-20T09:06:54.245Z,11.80
2017-12-20T09:09:21.897Z,15.23
2017-12-20T09:11:49.584Z,5.43
2017-12-20T09:14:18.022Z,6.33
2017-12-20T09:16:45.652Z,10.60
2017-12-20T09:19:13.253Z,9.13
2017-12-20T09:21:40.850Z,10.50
2017-12-20T09:24:09.240Z,7.17
2017-12-20T09:26:37.602Z,6.53
2017-12-20T09:29:06.063Z,10.37
2017-12-20T09:31:33.686Z,11.20
2017-12-20T09:34:01.825Z,8.07
2017-12-20T09:36:30.236Z,12.90
2017-12-20T09:38:57.873Z,6.80
2017-12-20T09:41:26.281Z,9.77
2017-12-20T09:43:53.883Z,14.23
2017-12-20T09:46:21.483Z,11.10
2017-12-20T09:48:49.121Z,16.50
2017-12-20T09:51:17.537Z,15.67
2017-12-20T09:53:45.181Z,9.17
2017-12-20T09:56:12.891Z,10.00
2017-12-20T09:58:40.508Z,12.90
2017-12-20T10:01:08.166Z,8.13
2017-12-20T10:03:35.877Z,13.23
2017-12-20T10:06:03.482Z,7.43
2017-12-20T10:08:31.897Z,10.07
2017-12-20T10:10:59.545Z,10.37
2017-12-20T10:13:27.156Z,11.57
2017-12-20T10:15:54.998Z,7.40
2017-12-20T10:18:22.612Z,9.00
2017-12-20T10:20:50.965Z,7.73
2017-12-20T10:23:20.137Z,8.37
2017-12-20T10:25:47.751Z,7.67
2017-12-20T10:28:16.142Z,8.50
2017-12-20T10:30:43.730Z,6.90
2017-12-20T10:33:11.340Z,8.00
2017-12-20T10:35:39.766Z,6.20
2017-12-20T10:38:07.372Z,4.63
2017-12-20T10:40:35.006Z,6.20
2017-12-20T10:43:02.633Z,5.00
2017-12-20T10:45:30.253Z,7.70
2017-12-20T10:47:57.913Z,5.63
2017-12-20T10:50:26.457Z,9.70
2017-12-20T10:52:54.084Z,5.20
2017-12-20T10:55:21.728Z,5.90
2017-12-20T10:57:50.101Z,5.40
2017-12-20T11:00:17.752Z,5.30
2017-12-20T11:02:45.348Z,5.60
2017-12-20T11:05:12.958Z,4.90
2017-12-20T11:07:40.595Z,6.50
2017-12-20T11:10:08.453Z,5.87
2017-12-20T11:12:36.072Z,7.80
2017-12-20T11:15:04.478Z,5.90
2017-12-20T11:17:32.112Z,6.00
2017-12-20T11:20:00.513Z,4.13
2017-12-20T11:22:28.140Z,6.00
2017-12-20T11:24:55.742Z,5.60
2017-12-20T11:27:23.331Z,3.90
2017-12-20T11:29:50.969Z,5.00
2017-12-20T11:32:18.581Z,5.27
2017-12-20T11:34:46.430Z,4.17
2017-12-20T11:37:14.409Z,4.67
2017-12-20T11:39:42.913Z,7.47
2017-12-20T11:42:11.449Z,5.40
2017-12-20T11:44:39.232Z,6.00
2017-12-20T11:47:07.712Z,4.63
2017-12-20T11:49:35.393Z,4.27
2017-12-20T11:52:03.131Z,4.27
2017-12-20T11:54:31.733Z,5.13
2017-12-20T11:56:59.568Z,5.27
2017-12-20T11:59:27.365Z,4.20
2017-12-20T12:01:55.942Z,5.20
2017-12-20T12:04:23.792Z,4.43
2017-12-20T12:06:51.563Z,3.57
2017-12-20T12:09:19.448Z,3.80
2017-12-20T12:11:47.168Z,4.50
2017-12-20T12:14:14.981Z,5.90
2017-12-20T12:16:42.574Z,4.77
2017-12-20T12:19:10.381Z,4.13
2017-12-20T12:21:38.246Z,3.60
2017-12-20T12:24:06.122Z,6.10
2017-12-20T12:26:33.890Z,4.30
2017-12-20T12:29:01.554Z,4.63
2017-12-20T12:31:29.205Z,5.13
2017-12-20T12:33:56.960Z,3.93
2017-12-20T12:36:24.733Z,4.60
2017-12-20T12:38:52.601Z,5.57
2017-12-20T12:41:20.317Z,6.10
2017-12-20T12:43:48.161Z,5.43
2017-12-20T12:46:16.698Z,5.93
2017-12-20T12:48:44.566Z,7.40
2017-12-20T12:51:12.344Z,8.53
2017-12-20T12:53:40.213Z,8.00
2017-12-20T12:56:07.884Z,9.17
2017-12-20T12:58:35.509Z,6.70
2017-12-20T13:01:03.332Z,5.77
2017-12-20T13:03:31.795Z,5.27
2017-12-20T13:05:59.633Z,4.97
2017-12-20T13:08:27.452Z,5.23
2017-12-20T13:10:55.880Z,8.80
2017-12-20T13:13:23.660Z,5.03
2017-12-20T13:15:51.429Z,4.70
2017-12-20T13:18:19.191Z,7.23
2017-12-20T13:20:46.830Z,6.60
2017-12-20T13:23:14.596Z,7.10
2017-12-20T13:25:42.379Z,7.70
2017-12-20T13:28:12.488Z,5.57
2017-12-20T13:30:40.255Z,5.10
2017-12-20T13:33:07.926Z,7.90
2017-12-20T13:35:35.679Z,6.10
2017-12-20T13:38:03.329Z,8.07
2017-12-20T13:40:31.271Z,4.80
2017-12-20T13:42:58.961Z,5.90
2017-12-20T13:45:26.789Z,7.70
2017-12-20T13:47:55.309Z,7.37
2017-12-20T13:50:22.986Z,6.33
2017-12-20T13:52:50.738Z,7.83
2017-12-20T13:55:18.514Z,4.87
2017-12-20T13:57:46.386Z,6.93
2017-12-20T14:00:14.248Z,5.93
2017-12-20T14:02:42.010Z,8.40
2017-12-20T14:05:09.791Z,10.80
2017-12-20T14:07:37.582Z,7.37
2017-12-20T14:10:06.212Z,6.17
2017-12-20T14:12:34.001Z,6.70
2017-12-20T14:15:01.669Z,6.67
2017-12-20T14:17:29.421Z,9.63
2017-12-20T14:19:57.177Z,7.97
2017-12-20T14:22:24.842Z,6.87
2017-12-20T14:24:52.712Z,7.00
2017-12-20T14:27:20.451Z,6.60
2017-12-20T14:29:48.245Z,5.93
2017-12-20T14:32:16.010Z,7.40
2017-12-20T14:34:43.649Z,8.97
2017-12-20T14:37:11.419Z,10.90
2017-12-20T14:39:39.145Z,11.63
2017-12-20T14:42:06.926Z,15.13
2017-12-20T14:44:34.642Z,14.63
2017-12-20T14:47:02.367Z,14.07
2017-12-20T14:49:30.030Z,9.80
2017-12-20T14:51:58.236Z,8.20
2017-12-20T14:54:25.968Z,11.20
2017-12-20T14:56:53.751Z,11.97
2017-12-20T14:59:21.616Z,7.93
2017-12-20T15:04:24.826Z,8.83
2017-12-20T15:06:54.315Z,8.00
2017-12-20T15:09:22.923Z,10.50
2017-12-20T15:11:50.589Z,7.07
2017-12-20T15:14:18.324Z,8.33
2017-12-20T15:16:46.199Z,9.03
2017-12-20T15:19:13.968Z,6.90
2017-12-20T15:21:41.849Z,8.70
2017-12-20T15:24:09.602Z,7.07
2017-12-20T15:26:37.281Z,6.10
2017-12-20T15:29:05.041Z,7.03
2017-12-20T15:31:32.825Z,7.90
2017-12-20T15:34:01.364Z,9.80
2017-12-20T15:36:29.019Z,6.13
2017-12-20T15:38:56.702Z,5.93
2017-12-20T15:41:24.475Z,8.70
2017-12-20T15:43:52.241Z,9.10
2017-12-20T15:46:21.540Z,7.10
2017-12-20T15:48:49.288Z,9.57
2017-12-20T15:51:17.104Z,11.10
2017-12-20T15:53:44.946Z,7.80
2017-12-20T15:56:12.689Z,6.00
2017-12-20T15:58:40.389Z,6.40
2017-12-20T16:01:08.935Z,6.77
2017-12-20T16:03:36.596Z,9.47
2017-12-20T16:06:04.342Z,11.13
2017-12-20T16:08:31.953Z,6.87
2017-12-20T16:11:00.406Z,7.00
2017-12-20T16:13:28.186Z,9.60
2017-12-20T16:15:56.135Z,7.90
2017-12-20T16:18:23.982Z,6.90
2017-12-20T16:20:51.592Z,7.87
2017-12-20T16:23:20.053Z,7.40
2017-12-20T16:25:47.839Z,5.53
2017-12-20T16:28:16.271Z,7.83
2017-12-20T16:30:43.946Z,7.33
2017-12-20T16:33:11.590Z,5.00
2017-12-20T16:35:39.251Z,6.00
2017-12-20T16:38:08.106Z,7.90
2017-12-20T16:40:36.783Z,6.33
2017-12-20T16:43:06.031Z,6.93
2017-12-20T16:45:33.714Z,6.40
2017-12-20T16:48:01.472Z,6.43
2017-12-20T16:50:29.425Z,7.90
2017-12-20T16:52:57.076Z,11.70
2017-12-20T16:55:24.743Z,7.43
2017-12-20T16:57:52.348Z,9.70
2017-12-20T17:00:19.983Z,10.73
2017-12-20T17:02:47.616Z,8.87
2017-12-20T17:05:15.213Z,9.87
2017-12-20T17:07:43.058Z,10.87
2017-12-20T17:10:10.725Z,12.03
2017-12-20T17:12:38.589Z,8.47
2017-12-20T17:15:06.317Z,8.63
2017-12-20T17:17:33.979Z,7.80
2017-12-20T17:20:01.783Z,8.97
2017-12-20T17:22:29.758Z,10.50
2017-12-20T17:24:57.527Z,7.00
2017-12-20T17:27:25.184Z,10.10
2017-12-20T17:29:52.972Z,9.20
2017-12-20T17:32:20.617Z,12.50
2017-12-20T17:34:48.384Z,13.83
2017-12-20T17:37:16.248Z,9.83
2017-12-20T17:39:44.018Z,10.80
2017-12-20T17:42:11.745Z,11.93
2017-12-20T17:44:39.486Z,11.40
2017-12-20T17:47:13.551Z,8.50
2017-12-20T17:49:41.221Z,9.83
2017-12-20T17:52:11.535Z,14.87
2017-12-20T17:54:39.431Z,15.77
2017-12-20T17:57:07.824Z,18.07
2017-12-20T17:59:36.404Z,16.97
2017-12-20T18:02:05.048Z,15.10
2017-12-20T18:04:32.849Z,21.37
2017-12-20T18:07:01.496Z,20.70
2017-12-20T18:09:29.469Z,32.60
2017-12-20T18:11:57.333Z,31.20
2017-12-20T18:14:25.308Z,25.47
2017-12-20T18:16:53.178Z,21.70
2017-12-20T18:19:21.140Z,22.17
2017-12-20T18:21:49.009Z,26.00
2017-12-20T18:24:17.165Z,18.83
2017-12-20T18:26:44.971Z,20.60
2017-12-20T18:29:14.580Z,16.40
2017-12-20T18:31:44.245Z,14.93
2017-12-20T18:34:14.194Z,21.47
2017-12-20T18:36:43.852Z,16.77
2017-12-20T18:39:13.387Z,16.40
2017-12-20T18:41:41.939Z,19.67
2017-12-20T18:44:11.074Z,16.43
2017-12-20T18:46:40.608Z,23.27
2017-12-20T18:49:10.179Z,14.10
2017-12-20T18:51:39.502Z,16.57
2017-12-20T18:54:10.796Z,17.37
2017-12-20T18:56:40.927Z,21.17
2017-12-20T18:59:11.303Z,14.80
2017-12-20T19:01:40.349Z,15.53
2017-12-20T19:04:09.980Z,15.60
2017-12-20T19:06:40.640Z,17.10
2017-12-20T19:09:10.473Z,11.87
2017-12-20T19:11:40.284Z,15.67
2017-12-20T19:14:08.308Z,15.30
2017-12-20T19:16:36.282Z,14.03
2017-12-20T19:19:05.858Z,15.00
2017-12-20T19:21:33.862Z,14.60
2017-12-20T19:24:01.728Z,15.93
2017-12-20T19:26:29.598Z,19.03
2017-12-20T19:28:57.562Z,13.50
2017-12-20T19:31:25.425Z,16.33
2017-12-20T19:33:53.292Z,14.50
2017-12-20T19:36:21.257Z,14.03
2017-12-20T19:38:49.849Z,12.50
2017-12-20T19:41:21.111Z,17.00
2017-12-20T19:43:49.696Z,16.83
2017-12-20T19:46:18.102Z,14.27
2017-12-20T19:48:46.019Z,18.27
2017-12-20T19:51:14.809Z,15.67
2017-12-20T19:53:43.295Z,17.63
2017-12-20T19:56:11.211Z,15.00
2017-12-20T19:58:39.131Z,13.60
2017-12-20T20:01:06.998Z,16.77
2017-12-20T20:03:34.855Z,18.33
2017-12-20T20:06:02.726Z,12.77
2017-12-20T20:08:30.700Z,19.60
2017-12-20T20:10:58.563Z,14.37
2017-12-20T20:13:26.429Z,22.30
2017-12-20T20:15:54.292Z,18.00
2017-12-20T20:18:22.476Z,22.80
2017-12-20T20:20:50.339Z,22.30
2017-12-20T20:23:18.302Z,21.53
2017-12-20T20:25:46.376Z,21.23
2017-12-20T20:28:14.248Z,25.10
2017-12-20T20:30:42.219Z,23.57
2017-12-20T20:33:10.082Z,22.97
2017-12-20T20:35:38.043Z,26.87
2017-12-20T20:38:05.920Z,22.10
2017-12-20T20:40:33.784Z,22.87
2017-12-20T20:43:01.750Z,24.63
2017-12-20T20:45:29.620Z,23.43
2017-12-20T20:47:57.484Z,22.30
2017-12-20T20:50:25.354Z,23.43
2017-12-20T20:52:53.320Z,22.10
2017-12-20T20:55:21.182Z,24.30
2017-12-20T20:57:49.154Z,26.30
2017-12-20T21:00:19.197Z,22.40
2017-12-20T21:02:47.142Z,23.70
2017-12-20T21:05:15.012Z,28.17
2017-12-20T21:07:42.878Z,23.17
2017-12-20T21:10:10.840Z,21.80
2017-12-20T21:12:38.706Z,24.67
2017-12-20T21:15:06.573Z,20.17
2017-12-20T21:17:34.448Z,20.20
2017-12-20T21:20:02.307Z,18.53
2017-12-20T21:22:30.279Z,20.47
2017-12-20T21:24:58.150Z,19.50
2017-12-20T21:27:26.029Z,26.30
2017-12-20T21:29:53.986Z,20.57
2017-12-20T21:32:21.850Z,17.60
2017-12-20T21:34:49.815Z,23.13
2017-12-20T21:37:17.838Z,16.20
2017-12-20T21:39:46.570Z,16.27
2017-12-20T21:42:14.363Z,20.57
2017-12-20T21:44:43.131Z,18.87
2017-12-20T21:47:10.999Z,21.17
2017-12-20T21:49:38.858Z,20.63
2017-12-20T21:52:06.828Z,19.87
2017-12-20T21:54:34.699Z,17.50
2017-12-20T21:57:02.969Z,18.30
2017-12-20T21:59:31.151Z,17.73
2017-12-20T22:02:00.160Z,19.87
2017-12-20T22:04:28.833Z,25.03
2017-12-20T22:06:56.695Z,24.07
2017-12-20T22:09:24.764Z,15.73
2017-12-20T22:11:52.764Z,20.67
2017-12-20T22:14:21.374Z,11.60
2017-12-20T22:16:49.223Z,16.80
2017-12-20T22:19:19.282Z,19.83
2017-12-20T22:21:49.695Z,18.17
2017-12-20T22:24:19.324Z,21.10
2017-12-20T22:26:49.192Z,22.47
2017-12-20T22:29:18.865Z,18.47
2017-12-20T22:31:47.652Z,18.83
2017-12-20T22:34:15.521Z,19.70
2017-12-20T22:36:43.378Z,16.43
2017-12-20T22:39:11.316Z,18.37
2017-12-20T22:41:39.224Z,16.70
2017-12-20T22:44:07.190Z,19.00
2017-12-20T22:46:37.300Z,20.80
2017-12-20T22:49:05.099Z,18.53
2017-12-20T22:51:33.661Z,18.10
2017-12-20T22:54:01.623Z,17.80
2017-12-20T22:56:29.491Z,17.13
2017-12-20T22:58:57.461Z,15.70
2017-12-20T23:01:25.328Z,17.83
2017-12-20T23:03:53.190Z,16.23
2017-12-20T23:06:21.161Z,15.53
2017-12-20T23:08:49.129Z,13.47
2017-12-20T23:11:16.998Z,14.57
2017-12-20T23:13:44.946Z,21.90
2017-12-20T23:16:12.829Z,18.50
2017-12-20T23:18:40.647Z,22.20
2017-12-20T23:21:09.391Z,16.63
2017-12-20T23:23:37.256Z,14.17
2017-12-20T23:26:05.085Z,16.80
2017-12-20T23:28:32.695Z,17.83
2017-12-20T23:31:00.549Z,13.17
2017-12-20T23:33:28.515Z,19.10
2017-12-20T23:35:56.382Z,17.57
2017-12-20T23:38:24.247Z,18.43
2017-12-20T23:40:51.879Z,16.77
2017-12-20T23:43:19.491Z,16.30
2017-12-20T23:45:47.125Z,15.93
2017-12-20T23:48:14.739Z,12.30
2017-12-20T23:50:43.107Z,16.17
2017-12-20T23:53:11.514Z,15.40
2017-12-20T23:55:39.136Z,17.60
2017-12-20T23:58:06.755Z,15.83
